createdAt,value
2019-02-20T00:01:02.516Z,99609.58
2019-02-20T00:03:31.984Z,99610.11
2019-02-20T00:06:01.739Z,99611.38
2019-02-20T00:08:32.795Z,99613.38
2019-02-20T00:11:02.345Z,99617.58
2019-02-20T00:13:32.159Z,99621.45
2019-02-20T00:16:01.634Z,99618.83
2019-02-20T00:18:33.478Z,99620.95
2019-02-20T00:21:05.079Z,99617.83
2019-02-20T00:23:39.352Z,99625.11
2019-02-20T00:26:09.325Z,99625.66
2019-02-20T00:28:39.055Z,99630.77
2019-02-20T00:31:09.260Z,99630.73
2019-02-20T00:33:39.254Z,99628.13
2019-02-20T00:36:08.469Z,99625.14
2019-02-20T00:38:40.469Z,99623.20
2019-02-20T00:41:10.809Z,99630.21
2019-02-20T00:43:43.216Z,99632.00
2019-02-20T00:46:33.903Z,99630.28
2019-02-20T00:49:09.221Z,99627.33
2019-02-20T00:52:07.384Z,99625.33
2019-02-20T00:54:36.892Z,99629.70
2019-02-20T00:57:06.899Z,99635.37
2019-02-20T00:59:38.878Z,99639.84
2019-02-20T01:02:09.334Z,99637.03
2019-02-20T01:04:38.530Z,99632.08
2019-02-20T01:07:08.760Z,99626.07
2019-02-20T01:09:38.703Z,99635.95
2019-02-20T01:12:12.040Z,99637.89
2019-02-20T01:14:44.556Z,99644.97
2019-02-20T01:17:16.605Z,99639.74
2019-02-20T01:19:46.356Z,99645.28
2019-02-20T01:22:15.544Z,99643.37
2019-02-20T01:24:47.594Z,99639.05
2019-02-20T01:27:18.586Z,99632.22
2019-02-20T01:29:49.075Z,99635.17
2019-02-20T01:32:23.621Z,99625.02
2019-02-20T01:34:54.203Z,99631.22
2019-02-20T01:37:28.369Z,99626.03
2019-02-20T01:39:58.088Z,99629.61
2019-02-20T01:42:27.846Z,99633.79
2019-02-20T01:44:57.437Z,99628.60
2019-02-20T01:47:27.402Z,99635.95
2019-02-20T01:49:58.830Z,99630.56
2019-02-20T01:52:28.350Z,99628.33
2019-02-20T01:54:58.057Z,99627.45
2019-02-20T01:57:30.301Z,99627.67
2019-02-20T01:59:59.791Z,99629.91
2019-02-20T02:02:29.919Z,99629.17
2019-02-20T02:05:01.094Z,99637.52
2019-02-20T02:07:30.795Z,99632.93
2019-02-20T02:10:01.057Z,99625.24
2019-02-20T02:12:33.090Z,99629.19
2019-02-20T02:15:04.785Z,99628.30
2019-02-20T02:17:34.749Z,99628.23
2019-02-20T02:20:05.625Z,99630.84
2019-02-20T02:22:35.085Z,99622.09
2019-02-20T02:25:05.304Z,99626.17
2019-02-20T02:27:34.755Z,99619.61
2019-02-20T02:30:09.408Z,99615.84
2019-02-20T02:32:41.134Z,99623.73
2019-02-20T02:35:11.101Z,99621.27
2019-02-20T02:37:41.676Z,99623.56
2019-02-20T02:40:11.098Z,99624.08
2019-02-20T02:42:40.559Z,99626.85
2019-02-20T02:45:12.041Z,99624.44
2019-02-20T02:47:41.255Z,99613.09
2019-02-20T02:50:10.782Z,99615.70
2019-02-20T02:52:42.941Z,99605.06
2019-02-20T02:55:14.431Z,99606.67
2019-02-20T02:57:43.684Z,99605.64
2019-02-20T03:00:13.236Z,99608.84
2019-02-20T03:02:42.433Z,99606.06
2019-02-20T03:05:11.609Z,99606.61
2019-02-20T03:07:41.301Z,99614.67
2019-02-20T03:10:12.562Z,99613.92
2019-02-20T03:12:44.171Z,99623.70
2019-02-20T03:15:13.887Z,99610.66
2019-02-20T03:17:43.328Z,99608.91
2019-02-20T03:20:16.818Z,99616.93
2019-02-20T03:22:49.075Z,99620.13
2019-02-20T03:25:21.185Z,99617.00
2019-02-20T03:27:55.728Z,99614.09
2019-02-20T03:30:25.683Z,99610.55
2019-02-20T03:32:54.886Z,99609.87
2019-02-20T03:35:26.617Z,99614.57
2019-02-20T03:37:57.250Z,99621.64
2019-02-20T03:40:28.275Z,99620.84
2019-02-20T03:43:01.683Z,99629.11
2019-02-20T03:45:31.917Z,99623.80
2019-02-20T03:48:06.116Z,99630.01
2019-02-20T03:50:35.583Z,99623.45
2019-02-20T03:53:04.795Z,99624.66
2019-02-20T03:55:34.504Z,99628.89
2019-02-20T03:58:07.887Z,99633.13
2019-02-20T04:00:38.557Z,99632.28
2019-02-20T04:03:09.605Z,99641.89
2019-02-20T04:05:41.128Z,99639.59
2019-02-20T04:08:10.587Z,99643.48
2019-02-20T04:10:40.047Z,99648.70
2019-02-20T04:13:10.321Z,99642.66
2019-02-20T04:15:42.021Z,99639.73
2019-02-20T04:18:11.738Z,99648.77
2019-02-20T04:20:41.478Z,99646.39
2019-02-20T04:23:10.678Z,99645.91
2019-02-20T04:25:46.820Z,99640.69
2019-02-20T04:28:16.284Z,99631.78
2019-02-20T04:30:46.908Z,99640.23
2019-02-20T04:33:18.149Z,99636.18
2019-02-20T04:35:47.337Z,99634.50
2019-02-20T04:38:16.784Z,99643.55
2019-02-20T04:40:48.065Z,99639.70
2019-02-20T04:43:18.810Z,99639.02
2019-02-20T04:45:51.361Z,99630.49
2019-02-20T04:48:23.838Z,99636.75
2019-02-20T04:50:54.123Z,99635.64
2019-02-20T04:53:24.470Z,99641.72
2019-02-20T04:55:55.972Z,99638.78
2019-02-20T04:58:28.492Z,99641.13
2019-02-20T05:00:58.242Z,99639.52
2019-02-20T05:03:27.401Z,99640.31
2019-02-20T05:05:57.407Z,99639.48
2019-02-20T05:08:27.687Z,99636.20
2019-02-20T05:10:58.894Z,99643.65
2019-02-20T05:13:28.083Z,99645.98
2019-02-20T05:15:57.815Z,99640.87
2019-02-20T05:18:27.379Z,99639.48
2019-02-20T05:20:58.866Z,99641.30
2019-02-20T05:23:29.598Z,99647.42
2019-02-20T05:25:59.354Z,99646.09
2019-02-20T05:28:30.087Z,99655.59
2019-02-20T05:31:00.294Z,99658.23
2019-02-20T05:33:29.758Z,99657.00
2019-02-20T05:36:00.494Z,99655.88
2019-02-20T05:38:30.699Z,99652.09
2019-02-20T05:41:01.104Z,99655.76
2019-02-20T05:43:30.292Z,99656.13
2019-02-20T05:46:00.545Z,99660.57
2019-02-20T05:48:32.626Z,99663.93
2019-02-20T05:51:02.356Z,99666.39
2019-02-20T05:53:34.410Z,99664.79
2019-02-20T05:56:08.442Z,99666.13
2019-02-20T05:58:39.374Z,99659.87
2019-02-20T06:01:10.315Z,99658.00
2019-02-20T06:03:41.251Z,99651.24
2019-02-20T06:06:11.060Z,99657.48
2019-02-20T06:08:43.732Z,99669.91
2019-02-20T06:11:15.569Z,99676.06
2019-02-20T06:13:45.424Z,99678.59
2019-02-20T06:16:14.896Z,99681.91
2019-02-20T06:18:45.291Z,99671.91
2019-02-20T06:21:16.474Z,99671.44
2019-02-20T06:23:47.804Z,99678.89
2019-02-20T06:26:20.308Z,99681.73
2019-02-20T06:28:49.810Z,99683.48
2019-02-20T06:31:18.980Z,99690.42
2019-02-20T06:33:48.890Z,99694.05
2019-02-20T06:36:18.605Z,99699.16
2019-02-20T06:38:48.279Z,99710.57
2019-02-20T06:41:19.230Z,99711.80
2019-02-20T06:43:51.034Z,99726.17
2019-02-20T06:46:20.918Z,99726.08
2019-02-20T06:48:50.732Z,99718.83
2019-02-20T06:51:21.998Z,99723.47
2019-02-20T06:53:51.276Z,99723.62
2019-02-20T06:56:26.965Z,99730.61
2019-02-20T06:58:57.472Z,99733.04
2019-02-20T07:01:26.675Z,99742.93
2019-02-20T07:03:56.980Z,99747.12
2019-02-20T07:06:54.600Z,99752.48
2019-02-20T07:10:01.286Z,99755.47
2019-02-20T07:12:55.910Z,99762.08
2019-02-20T07:16:02.186Z,99766.72
2019-02-20T07:18:50.136Z,99773.20
2019-02-20T07:22:03.216Z,99768.84
2019-02-20T07:25:05.035Z,99767.31
2019-02-20T07:28:21.535Z,99762.58
2019-02-20T07:30:52.722Z,99771.50
2019-02-20T07:33:24.179Z,99770.19
2019-02-20T07:35:57.639Z,99774.55
2019-02-20T07:38:28.163Z,99774.52
2019-02-20T07:41:00.975Z,99773.92
2019-02-20T07:43:34.858Z,99775.11
2019-02-20T07:46:19.917Z,99774.48
2019-02-20T07:48:50.709Z,99780.67
2019-02-20T07:51:41.955Z,99783.44
2019-02-20T07:54:11.972Z,99791.62
2019-02-20T07:56:42.012Z,99802.66
2019-02-20T07:59:12.181Z,99799.42
2019-02-20T08:01:45.324Z,99800.62
2019-02-20T08:04:15.971Z,99812.76
2019-02-20T08:06:49.755Z,99816.11
2019-02-20T08:09:28.145Z,99820.46
2019-02-20T08:11:57.609Z,99819.89
2019-02-20T08:14:27.095Z,99834.85
2019-02-20T08:16:57.133Z,99832.52
2019-02-20T08:19:28.027Z,99844.26
2019-02-20T08:21:57.247Z,99849.16
2019-02-20T08:24:26.825Z,99851.32
2019-02-20T08:26:56.771Z,99837.29
2019-02-20T08:29:26.010Z,99836.92
2019-02-20T08:31:56.846Z,99840.31
2019-02-20T08:34:26.038Z,99845.66
2019-02-20T08:36:55.198Z,99848.55
2019-02-20T08:39:24.395Z,99851.53
2019-02-20T08:41:53.568Z,99854.02
2019-02-20T08:44:24.113Z,99855.73
2019-02-20T08:46:54.867Z,99858.53
2019-02-20T08:49:24.369Z,99863.95
2019-02-20T08:51:54.987Z,99865.39
2019-02-20T08:54:25.011Z,99865.21
2019-02-20T08:56:58.090Z,99874.30
2019-02-20T08:59:28.040Z,99878.48
2019-02-20T09:01:57.407Z,99875.11
2019-02-20T09:04:27.202Z,99871.91
2019-02-20T09:06:58.016Z,99881.30
2019-02-20T09:09:27.229Z,99880.66
2019-02-20T09:12:17.462Z,99883.56
2019-02-20T09:14:46.913Z,99882.24
2019-02-20T09:17:16.573Z,99881.92
2019-02-20T09:19:46.752Z,99877.67
2019-02-20T09:22:16.017Z,99876.72
2019-02-20T09:24:46.284Z,99875.42
2019-02-20T09:27:15.748Z,99877.29
2019-02-20T09:29:48.290Z,99880.04
2019-02-20T09:32:21.131Z,99880.98
2019-02-20T09:34:51.676Z,99872.50
2019-02-20T09:37:20.833Z,99871.70
2019-02-20T09:39:50.303Z,99877.25
2019-02-20T09:42:21.505Z,99870.62
2019-02-20T09:44:56.749Z,99877.53
2019-02-20T09:47:26.859Z,99872.34
2019-02-20T09:49:56.805Z,99879.65
2019-02-20T09:52:26.168Z,99885.36
2019-02-20T09:55:00.788Z,99883.02
2019-02-20T09:57:30.042Z,99881.70
2019-02-20T09:59:59.800Z,99882.34
2019-02-20T10:02:29.568Z,99881.34
2019-02-20T10:04:58.745Z,99885.81
2019-02-20T10:07:35.766Z,99877.10
2019-02-20T10:10:05.254Z,99883.12
2019-02-20T10:12:34.752Z,99882.07
2019-02-20T10:15:05.756Z,99883.25
2019-02-20T10:17:36.274Z,99879.03
2019-02-20T10:20:05.949Z,99874.28
2019-02-20T10:22:35.176Z,99864.59
2019-02-20T10:25:04.386Z,99879.09
2019-02-20T10:27:33.894Z,99883.77
2019-02-20T10:30:03.342Z,99879.08
2019-02-20T10:32:32.566Z,99875.96
2019-02-20T10:35:02.077Z,99874.03
2019-02-20T10:37:31.334Z,99878.42
2019-02-20T10:40:00.604Z,99872.25
2019-02-20T10:42:51.246Z,99874.53
2019-02-20T10:45:20.947Z,99872.82
2019-02-20T10:47:51.777Z,99866.23
2019-02-20T10:50:23.688Z,99871.75
2019-02-20T10:52:55.692Z,99867.73
2019-02-20T10:55:27.258Z,99857.54
2019-02-20T10:57:56.451Z,99863.64
2019-02-20T11:00:28.709Z,99864.80
2019-02-20T11:02:58.355Z,99859.13
2019-02-20T11:05:27.648Z,99860.31
2019-02-20T11:07:58.650Z,99859.69
2019-02-20T11:10:27.813Z,99854.04
2019-02-20T11:12:57.287Z,99852.89
2019-02-20T11:15:27.050Z,99851.70
2019-02-20T11:17:56.510Z,99856.70
2019-02-20T11:20:26.298Z,99853.31
2019-02-20T11:22:57.580Z,99854.09
2019-02-20T11:25:28.579Z,99847.50
2019-02-20T11:28:00.496Z,99847.38
2019-02-20T11:30:30.294Z,99842.53
2019-02-20T11:33:00.852Z,99842.92
2019-02-20T11:35:30.066Z,99833.72
2019-02-20T11:37:59.601Z,99838.56
2019-02-20T11:40:30.099Z,99835.42
2019-02-20T11:42:59.263Z,99831.88
2019-02-20T11:45:28.463Z,99829.16
2019-02-20T11:47:59.805Z,99832.55
2019-02-20T11:50:30.070Z,99830.06
2019-02-20T11:53:00.316Z,99827.94
2019-02-20T11:55:31.522Z,99824.36
2019-02-20T11:58:01.493Z,99826.47
2019-02-20T12:00:31.016Z,99829.50
2019-02-20T12:03:00.247Z,99826.09
2019-02-20T12:05:29.598Z,99830.08
2019-02-20T12:07:58.841Z,99836.81
2019-02-20T12:10:29.814Z,99830.96
2019-02-20T12:13:00.045Z,99825.91
2019-02-20T12:15:31.451Z,99830.36
2019-02-20T12:18:02.143Z,99821.49
2019-02-20T12:20:31.660Z,99822.23
2019-02-20T12:23:01.654Z,99826.09
2019-02-20T12:25:31.176Z,99820.23
2019-02-20T12:28:00.388Z,99818.69
2019-02-20T12:30:29.589Z,99822.13
2019-02-20T12:32:59.644Z,99819.47
2019-02-20T12:35:28.811Z,99822.90
2019-02-20T12:37:58.014Z,99822.06
2019-02-20T12:40:27.193Z,99821.02
2019-02-20T12:42:56.394Z,99816.20
2019-02-20T12:45:25.573Z,99816.04
2019-02-20T12:47:55.107Z,99819.09
2019-02-20T12:50:24.831Z,99819.66
2019-02-20T12:52:54.069Z,99813.11
2019-02-20T12:55:24.059Z,99815.53
2019-02-20T12:57:54.790Z,99815.19
2019-02-20T13:00:24.225Z,99806.09
2019-02-20T13:02:56.396Z,99816.37
2019-02-20T13:05:26.623Z,99812.03
2019-02-20T13:07:56.705Z,99808.92
2019-02-20T13:10:26.987Z,99811.22
2019-02-20T13:12:56.672Z,99804.11
2019-02-20T13:15:27.308Z,99805.19
2019-02-20T13:18:01.554Z,99802.69
2019-02-20T13:20:35.150Z,99799.96
2019-02-20T13:23:06.081Z,99798.43
2019-02-20T13:25:35.574Z,99794.65
2019-02-20T13:28:06.194Z,99796.48
2019-02-20T13:30:40.935Z,99803.30
2019-02-20T13:33:11.139Z,99805.28
2019-02-20T13:35:41.449Z,99796.02
2019-02-20T13:38:10.884Z,99795.83
2019-02-20T13:40:40.451Z,99801.98
2019-02-20T13:43:10.410Z,99800.73
2019-02-20T13:45:39.873Z,99802.05
2019-02-20T13:48:11.391Z,99796.00
2019-02-20T13:50:43.761Z,99803.39
2019-02-20T13:53:15.639Z,99798.62
2019-02-20T13:55:47.992Z,99799.43
2019-02-20T13:58:19.724Z,99794.58
2019-02-20T14:00:49.341Z,99794.59
2019-02-20T14:03:18.787Z,99789.42
2019-02-20T14:05:51.645Z,99790.77
2019-02-20T14:08:21.962Z,99791.29
2019-02-20T14:10:51.540Z,99793.68
2019-02-20T14:13:21.490Z,99785.38
2019-02-20T14:15:53.056Z,99788.34
2019-02-20T14:18:23.290Z,99785.94
2019-02-20T14:20:56.746Z,99779.30
2019-02-20T14:23:29.704Z,99777.87
2019-02-20T14:26:08.255Z,99779.71
2019-02-20T14:28:43.466Z,99779.77
2019-02-20T14:31:13.239Z,99775.78
2019-02-20T14:33:45.150Z,99777.11
2019-02-20T14:36:15.117Z,99782.45
2019-02-20T14:38:46.920Z,99784.21
2019-02-20T14:41:16.517Z,99788.00
2019-02-20T14:43:46.323Z,99777.36
2019-02-20T14:46:15.633Z,99783.30
2019-02-20T14:48:44.850Z,99778.84
2019-02-20T14:51:14.929Z,99772.23
2019-02-20T14:53:44.416Z,99783.25
2019-02-20T14:56:13.611Z,99787.63
2019-02-20T14:58:44.431Z,99787.77
2019-02-20T15:01:13.797Z,99790.77
2019-02-20T15:03:43.832Z,99782.98
2019-02-20T15:06:13.831Z,99783.00
2019-02-20T15:08:47.324Z,99776.91
2019-02-20T15:11:20.431Z,99770.00
2019-02-20T15:13:51.085Z,99766.73
2019-02-20T15:16:20.806Z,99765.19
2019-02-20T15:18:50.035Z,99768.13
2019-02-20T15:21:21.022Z,99776.80
2019-02-20T15:23:51.493Z,99778.85
2019-02-20T15:26:24.715Z,99781.50
2019-02-20T15:28:55.176Z,99770.91
2019-02-20T15:31:33.516Z,99775.17
2019-02-20T15:33:56.815Z,99776.59
2019-02-20T15:36:26.710Z,99786.00
2019-02-20T15:39:02.639Z,99790.58
2019-02-20T15:41:31.836Z,99787.30
2019-02-20T15:44:02.769Z,99785.53
2019-02-20T15:46:32.918Z,99784.75
2019-02-20T15:49:03.748Z,99783.48
2019-02-20T15:51:33.204Z,99783.91
2019-02-20T15:54:02.628Z,99778.83
2019-02-20T15:56:31.806Z,99783.64
2019-02-20T15:59:01.372Z,99779.67
2019-02-20T16:01:31.577Z,99783.06
2019-02-20T16:04:01.581Z,99784.00
2019-02-20T16:06:32.053Z,99785.33
2019-02-20T16:09:01.479Z,99787.84
2019-02-20T16:11:32.700Z,99785.91
2019-02-20T16:14:03.657Z,99780.89
2019-02-20T16:16:32.859Z,99776.78
2019-02-20T16:19:02.427Z,99782.46
2019-02-20T16:21:31.762Z,99782.70
2019-02-20T16:24:21.536Z,99786.81
2019-02-20T16:26:52.050Z,99788.88
2019-02-20T16:29:21.875Z,99792.45
2019-02-20T16:31:52.122Z,99796.13
2019-02-20T16:34:21.338Z,99797.43
2019-02-20T16:37:00.897Z,99795.84
2019-02-20T16:39:30.277Z,99796.58
2019-02-20T16:42:00.119Z,99794.70
2019-02-20T16:44:29.621Z,99799.89
2019-02-20T16:46:59.275Z,99795.94
2019-02-20T16:49:29.145Z,99796.63
2019-02-20T16:52:01.475Z,99800.86
2019-02-20T16:54:31.527Z,99804.28
2019-02-20T16:57:03.232Z,99805.77
2019-02-20T16:59:32.615Z,99809.58
2019-02-20T17:02:06.612Z,99816.37
2019-02-20T17:04:36.876Z,99812.02
2019-02-20T17:07:08.329Z,99816.59
2019-02-20T17:09:39.394Z,99821.80
2019-02-20T17:12:09.802Z,99817.23
2019-02-20T17:14:39.351Z,99822.41
2019-02-20T17:17:08.893Z,99823.27
2019-02-20T17:19:38.456Z,99820.80
2019-02-20T17:22:07.626Z,99829.03
2019-02-20T17:24:37.095Z,99834.66
2019-02-20T17:27:09.381Z,99835.20
2019-02-20T17:29:38.849Z,99834.56
2019-02-20T17:32:08.055Z,99837.79
2019-02-20T17:34:37.232Z,99843.98
2019-02-20T17:37:06.445Z,99847.69
2019-02-20T17:39:36.087Z,99840.66
2019-02-20T17:42:06.431Z,99843.50
2019-02-20T17:44:36.093Z,99846.30
2019-02-20T17:47:05.299Z,99845.33
2019-02-20T17:49:36.554Z,99847.81
2019-02-20T17:52:06.100Z,99854.98
2019-02-20T17:54:35.300Z,99857.33
2019-02-20T17:57:04.457Z,99864.86
2019-02-20T17:59:36.824Z,99872.51
2019-02-20T18:02:06.108Z,99870.02
2019-02-20T18:04:41.159Z,99868.03
2019-02-20T18:07:11.001Z,99872.53
2019-02-20T18:09:40.806Z,99869.70
2019-02-20T18:12:10.273Z,99871.75
2019-02-20T18:14:40.083Z,99874.28
2019-02-20T18:17:09.538Z,99882.33
2019-02-20T18:19:38.834Z,99884.69
2019-02-20T18:22:08.042Z,99876.14
2019-02-20T18:24:38.651Z,99882.33
2019-02-20T18:27:07.841Z,99877.17
2019-02-20T18:29:37.045Z,99884.58
2019-02-20T18:32:06.292Z,99879.14
2019-02-20T18:34:35.944Z,99882.90
2019-02-20T18:37:05.126Z,99884.09
2019-02-20T18:39:34.326Z,99882.49
2019-02-20T18:42:09.051Z,99883.28
2019-02-20T18:44:38.613Z,99882.80
2019-02-20T18:47:10.901Z,99878.72
2019-02-20T18:49:40.165Z,99885.78
2019-02-20T18:52:11.016Z,99887.70
2019-02-20T18:54:42.223Z,99895.44
2019-02-20T18:57:13.502Z,99892.25
2019-02-20T19:00:05.682Z,99889.51
2019-02-20T19:02:34.968Z,99894.11
2019-02-20T19:05:04.326Z,99903.45
2019-02-20T19:07:34.215Z,99903.29
2019-02-20T19:10:03.514Z,99896.70
2019-02-20T19:13:08.143Z,99902.78
2019-02-20T19:16:03.167Z,99904.16
2019-02-20T19:19:02.500Z,99906.09
2019-02-20T19:21:40.775Z,99905.88
2019-02-20T19:24:53.272Z,99911.83
2019-02-20T19:28:12.358Z,99907.17
2019-02-20T19:31:19.663Z,99908.61
2019-02-20T19:34:14.218Z,99916.91
2019-02-20T19:37:03.397Z,99920.00
2019-02-20T19:40:20.803Z,99916.91
2019-02-20T19:43:31.881Z,99914.85
2019-02-20T19:46:36.296Z,99920.84
2019-02-20T19:49:43.910Z,99920.44
2019-02-20T19:52:56.580Z,99923.81
2019-02-20T19:56:09.920Z,99924.13
2019-02-20T19:58:57.788Z,99924.39
2019-02-20T20:02:05.139Z,99924.77
2019-02-20T20:05:16.457Z,99925.05
2019-02-20T20:08:30.444Z,99928.11
2019-02-20T20:11:33.529Z,99928.17
2019-02-20T20:14:47.549Z,99930.48
2019-02-20T20:17:46.538Z,99933.22
2019-02-20T20:20:46.600Z,99923.58
2019-02-20T20:23:58.481Z,99922.03
2019-02-20T20:27:22.156Z,99925.37
2019-02-20T20:30:35.000Z,99926.13
2019-02-20T20:33:47.481Z,99917.42
2019-02-20T20:36:39.282Z,99932.79
2019-02-20T20:39:31.223Z,99937.85
2019-02-20T20:42:51.793Z,99932.48
2019-02-20T20:46:01.541Z,99934.71
2019-02-20T20:49:09.671Z,99942.94
2019-02-20T20:52:25.578Z,99940.44
2019-02-20T20:55:44.869Z,99946.02
2019-02-20T20:58:45.698Z,99943.11
2019-02-20T21:01:46.530Z,99943.72
2019-02-20T21:04:50.491Z,99947.16
2019-02-20T21:08:01.226Z,99949.11
2019-02-20T21:11:07.412Z,99949.34
2019-02-20T21:14:07.008Z,99945.22
2019-02-20T21:17:10.691Z,99942.99
2019-02-20T21:20:07.059Z,99940.47
2019-02-20T21:23:33.277Z,99941.05
2019-02-20T21:26:55.057Z,99931.47
2019-02-20T21:29:58.331Z,99931.67
2019-02-20T21:33:17.347Z,99936.66
2019-02-20T21:36:02.531Z,99930.38
2019-02-20T21:39:19.383Z,99934.08
2019-02-20T21:42:25.133Z,99926.27
2019-02-20T21:45:35.102Z,99935.84
2019-02-20T21:48:39.596Z,99936.41
2019-02-20T21:51:51.155Z,99936.75
2019-02-20T21:54:54.491Z,99933.27
2019-02-20T21:58:02.088Z,99929.12
2019-02-20T22:00:43.824Z,99936.08
2019-02-20T22:03:33.623Z,99934.48
2019-02-20T22:06:37.195Z,99935.41
2019-02-20T22:09:34.443Z,99938.89
2019-02-20T22:12:39.187Z,99940.36
2019-02-20T22:16:04.666Z,99936.67
2019-02-20T22:19:00.483Z,99941.60
2019-02-20T22:21:54.521Z,99946.17
2019-02-20T22:24:57.150Z,99944.75
2019-02-20T22:28:21.495Z,99946.63
2019-02-20T22:31:21.434Z,99949.82
2019-02-20T22:34:56.864Z,99951.28
2019-02-20T22:38:08.689Z,99954.22
2019-02-20T22:41:10.251Z,99950.00
2019-02-20T22:44:18.298Z,99949.73
2019-02-20T22:47:20.447Z,99953.10
2019-02-20T22:50:27.501Z,99950.48
2019-02-20T22:53:03.435Z,99958.25
2019-02-20T22:56:40.315Z,99957.30
2019-02-20T22:59:38.450Z,99957.95
2019-02-20T23:02:39.170Z,99963.13
2019-02-20T23:05:54.288Z,99962.87
2019-02-20T23:08:36.809Z,99963.55
2019-02-20T23:11:56.475Z,99970.17
2019-02-20T23:14:53.266Z,99969.99
2019-02-20T23:17:23.696Z,99964.20
2019-02-20T23:19:53.130Z,99967.85
2019-02-20T23:22:25.420Z,99970.36
2019-02-20T23:24:55.123Z,99964.91
2019-02-20T23:27:26.318Z,99980.17
2019-02-20T23:29:55.428Z,99979.57
2019-02-20T23:32:25.837Z,99979.17
2019-02-20T23:34:56.155Z,99984.58
2019-02-20T23:37:26.336Z,99986.94
2019-02-20T23:39:56.866Z,99987.41
2019-02-20T23:42:26.679Z,99986.59
2019-02-20T23:44:56.335Z,99983.97
2019-02-20T23:47:26.308Z,99992.14
2019-02-20T23:49:56.500Z,99990.33
2019-02-20T23:52:26.425Z,99994.97
2019-02-20T23:54:56.391Z,99991.78
2019-02-20T23:57:26.622Z,100000.76
